sensor_id;sensor_type;location;lat;lon;timestamp;pressure;altitude;pressure_sealevel;temperature;humidity
16580;BME280;8402;51.466;6.806;2023-04-01T00:02:20;99000.13;;;11.64;100.00
16580;BME280;8402;51.466;6.806;2023-04-01T00:04:50;98993.13;;;11.63;100.00
16580;BME280;8402;51.466;6.806;2023-04-01T00:07:20;99001.72;;;11.65;100.00
16580;BME280;8402;51.466;6.806;2023-04-01T00:09:56;98995.50;;;11.65;100.00
16580;BME280;8402;51.466;6.806;2023-04-01T00:12:26;98984.56;;;11.61;100.00
16580;BME280;8402;51.466;6.806;2023-04-01T00:14:56;98996.22;;;11.62;100.00
16580;BME280;8402;51.466;6.806;2023-04-01T00:17:29;98999.28;;;11.60;100.00
16580;BME280;8402;51.466;6.806;2023-04-01T00:19:59;99002.00;;;11.60;100.00
16580;BME280;8402;51.466;6.806;2023-04-01T00:22:29;98992.28;;;11.59;100.00
16580;BME280;8402;51.466;6.806;2023-04-01T00:25:00;98985.31;;;11.58;100.00
16580;BME280;8402;51.466;6.806;2023-04-01T00:27:30;98996.22;;;11.62;100.00
16580;BME280;8402;51.466;6.806;2023-04-01T00:29:59;98995.31;;;11.54;100.00
16580;BME280;8402;51.466;6.806;2023-04-01T00:32:32;98993.38;;;11.54;100.00
16580;BME280;8402;51.466;6.806;2023-04-01T00:35:03;98981.34;;;11.55;100.00
16580;BME280;8402;51.466;6.806;2023-04-01T00:37:35;98991.44;;;11.55;100.00
16580;BME280;8402;51.466;6.806;2023-04-01T00:40:10;99001.09;;;11.52;100.00
16580;BME280;8402;51.466;6.806;2023-04-01T00:42:51;98998.03;;;11.54;100.00
16580;BME280;8402;51.466;6.806;2023-04-01T00:45:33;98994.44;;;11.50;100.00
16580;BME280;8402;51.466;6.806;2023-04-01T00:48:10;99004.59;;;11.53;100.00
16580;BME280;8402;51.466;6.806;2023-04-01T00:50:42;98992.59;;;11.54;100.00
16580;BME280;8402;51.466;6.806;2023-04-01T00:53:14;98996.88;;;11.55;100.00
16580;BME280;8402;51.466;6.806;2023-04-01T00:55:49;98989.75;;;11.47;100.00
16580;BME280;8402;51.466;6.806;2023-04-01T00:58:24;98995.19;;;11.47;100.00
16580;BME280;8402;51.466;6.806;2023-04-01T01:00:56;99001.47;;;11.51;100.00
16580;BME280;8402;51.466;6.806;2023-04-01T01:03:32;98998.44;;;11.56;100.00
16580;BME280;8402;51.466;6.806;2023-04-01T01:06:12;98997.72;;;11.59;100.00
16580;BME280;8402;51.466;6.806;2023-04-01T01:09:02;98991.56;;;11.62;100.00
16580;BME280;8402;51.466;6.806;2023-04-01T01:11:41;98987.69;;;11.63;100.00
16580;BME280;8402;51.466;6.806;2023-04-01T01:14:22;98973.69;;;11.61;100.00
16580;BME280;8402;51.466;6.806;2023-04-01T01:16:58;98983.81;;;11.64;100.00
16580;BME280;8402;51.466;6.806;2023-04-01T01:20:01;98978.06;;;11.66;100.00
16580;BME280;8402;51.466;6.806;2023-04-01T01:23:02;98978.84;;;11.66;100.00
16580;BME280;8402;51.466;6.806;2023-04-01T01:25:43;98978.47;;;11.68;100.00
16580;BME280;8402;51.466;6.806;2023-04-01T01:28:28;98982.69;;;11.65;100.00
16580;BME280;8402;51.466;6.806;2023-04-01T01:31:12;98983.13;;;11.67;100.00
16580;BME280;8402;51.466;6.806;2023-04-01T01:33:57;98971.41;;;11.63;100.00
16580;BME280;8402;51.466;6.806;2023-04-01T01:36:34;98967.59;;;11.68;100.00
16580;BME280;8402;51.466;6.806;2023-04-01T01:39:07;98966.16;;;11.74;100.00
16580;BME280;8402;51.466;6.806;2023-04-01T01:41:39;98970.34;;;11.71;100.00
16580;BME280;8402;51.466;6.806;2023-04-01T01:44:12;98971.88;;;11.69;100.00
16580;BME280;8402;51.466;6.806;2023-04-01T01:46:45;98960.22;;;11.68;100.00
16580;BME280;8402;51.466;6.806;2023-04-01T01:49:16;98963.78;;;11.72;100.00
16580;BME280;8402;51.466;6.806;2023-04-01T01:51:50;98961.41;;;11.71;100.00
16580;BME280;8402;51.466;6.806;2023-04-01T01:54:20;98971.56;;;11.74;100.00
16580;BME280;8402;51.466;6.806;2023-04-01T01:56:51;98956.84;;;11.75;100.00
16580;BME280;8402;51.466;6.806;2023-04-01T01:59:25;98960.63;;;11.70;100.00
16580;BME280;8402;51.466;6.806;2023-04-01T02:01:56;98962.19;;;11.71;100.00
16580;BME280;8402;51.466;6.806;2023-04-01T02:04:27;98976.81;;;11.63;100.00
16580;BME280;8402;51.466;6.806;2023-04-01T02:07:03;98981.44;;;11.59;100.00
16580;BME280;8402;51.466;6.806;2023-04-01T02:09:35;98965.84;;;11.56;100.00
16580;BME280;8402;51.466;6.806;2023-04-01T02:12:06;98982.13;;;11.56;100.00
16580;BME280;8402;51.466;6.806;2023-04-01T02:14:41;98974.00;;;11.56;100.00
16580;BME280;8402;51.466;6.806;2023-04-01T02:17:15;98987.56;;;11.56;100.00
16580;BME280;8402;51.466;6.806;2023-04-01T02:19:49;98971.59;;;11.51;100.00
16580;BME280;8402;51.466;6.806;2023-04-01T02:22:25;98981.59;;;11.47;100.00
16580;BME280;8402;51.466;6.806;2023-04-01T02:24:58;98976.59;;;11.49;100.00
16580;BME280;8402;51.466;6.806;2023-04-01T02:27:30;98987.44;;;11.49;100.00
16580;BME280;8402;51.466;6.806;2023-04-01T02:30:00;98985.09;;;11.47;100.00
16580;BME280;8402;51.466;6.806;2023-04-01T02:32:31;98988.91;;;11.43;100.00
16580;BME280;8402;51.466;6.806;2023-04-01T02:35:09;98993.22;;;11.44;100.00
16580;BME280;8402;51.466;6.806;2023-04-01T02:37:42;98998.19;;;11.42;100.00
16580;BME280;8402;51.466;6.806;2023-04-01T02:40:14;98997.03;;;11.43;100.00
16580;BME280;8402;51.466;6.806;2023-04-01T02:42:44;99008.34;;;11.45;100.00
16580;BME280;8402;51.466;6.806;2023-04-01T02:45:15;98999.06;;;11.46;100.00
16580;BME280;8402;51.466;6.806;2023-04-01T02:47:45;99000.63;;;11.47;100.00
16580;BME280;8402;51.466;6.806;2023-04-01T02:50:15;99005.63;;;11.45;100.00
16580;BME280;8402;51.466;6.806;2023-04-01T02:52:47;99012.22;;;11.44;100.00
16580;BME280;8402;51.466;6.806;2023-04-01T02:55:17;99012.91;;;11.41;100.00
16580;BME280;8402;51.466;6.806;2023-04-01T02:57:47;99007.91;;;11.43;100.00
16580;BME280;8402;51.466;6.806;2023-04-01T03:00:17;99007.13;;;11.42;100.00
16580;BME280;8402;51.466;6.806;2023-04-01T03:02:47;99001.34;;;11.44;100.00
16580;BME280;8402;51.466;6.806;2023-04-01T03:05:18;99008.34;;;11.45;100.00
16580;BME280;8402;51.466;6.806;2023-04-01T03:07:51;99008.72;;;11.43;100.00
16580;BME280;8402;51.466;6.806;2023-04-01T03:10:21;99004.84;;;11.44;100.00
16580;BME280;8402;51.466;6.806;2023-04-01T03:12:51;99016.06;;;11.43;100.00
16580;BME280;8402;51.466;6.806;2023-04-01T03:15:21;99019.91;;;11.42;100.00
16580;BME280;8402;51.466;6.806;2023-04-01T03:17:51;99017.19;;;11.42;100.00
16580;BME280;8402;51.466;6.806;2023-04-01T03:20:20;99020.69;;;11.42;100.00
16580;BME280;8402;51.466;6.806;2023-04-01T03:22:53;99018.34;;;11.41;100.00
16580;BME280;8402;51.466;6.806;2023-04-01T03:25:23;99017.94;;;11.39;100.00
16580;BME280;8402;51.466;6.806;2023-04-01T03:27:53;99021.34;;;11.36;100.00
16580;BME280;8402;51.466;6.806;2023-04-01T03:30:26;99017.94;;;11.39;100.00
16580;BME280;8402;51.466;6.806;2023-04-01T03:32:57;99029.16;;;11.37;100.00
16580;BME280;8402;51.466;6.806;2023-04-01T03:35:27;99025.31;;;11.38;100.00
16580;BME280;8402;51.466;6.806;2023-04-01T03:38:00;99026.00;;;11.35;100.00
16580;BME280;8402;51.466;6.806;2023-04-01T03:40:30;99018.19;;;11.30;100.00
16580;BME280;8402;51.466;6.806;2023-04-01T03:43:03;99023.25;;;11.32;100.00
16580;BME280;8402;51.466;6.806;2023-04-01T03:45:35;99026.31;;;11.30;100.00
16580;BME280;8402;51.466;6.806;2023-04-01T03:48:05;99019.75;;;11.31;100.00
16580;BME280;8402;51.466;6.806;2023-04-01T03:50:35;99025.22;;;11.35;100.00
16580;BME280;8402;51.466;6.806;2023-04-01T03:53:07;99030.25;;;11.33;100.00
16580;BME280;8402;51.466;6.806;2023-04-01T03:55:38;99028.38;;;11.37;100.00
16580;BME280;8402;51.466;6.806;2023-04-01T03:58:08;99026.88;;;11.39;100.00
16580;BME280;8402;51.466;6.806;2023-04-01T04:00:38;99033.09;;;11.40;100.00
16580;BME280;8402;51.466;6.806;2023-04-01T04:03:08;99028.06;;;11.42;100.00
16580;BME280;8402;51.466;6.806;2023-04-01T04:05:46;99031.22;;;11.44;100.00
16580;BME280;8402;51.466;6.806;2023-04-01T04:08:18;99028.63;;;11.51;100.00
16580;BME280;8402;51.466;6.806;2023-04-01T04:10:54;99026.34;;;11.53;100.00
16580;BME280;8402;51.466;6.806;2023-04-01T04:13:24;99030.63;;;11.54;100.00
16580;BME280;8402;51.466;6.806;2023-04-01T04:15:54;99034.91;;;11.55;100.00
16580;BME280;8402;51.466;6.806;2023-04-01T04:18:24;99039.63;;;11.58;100.00
16580;BME280;8402;51.466;6.806;2023-04-01T04:20:54;99041.19;;;11.59;100.00
16580;BME280;8402;51.466;6.806;2023-04-01T04:23:27;99037.31;;;11.60;100.00
16580;BME280;8402;51.466;6.806;2023-04-01T04:26:02;99038.91;;;11.61;100.00
16580;BME280;8402;51.466;6.806;2023-04-01T04:28:33;99042.75;;;11.60;100.00
16580;BME280;8402;51.466;6.806;2023-04-01T04:31:03;99041.69;;;11.65;100.00
16580;BME280;8402;51.466;6.806;2023-04-01T04:33:35;99049.47;;;11.66;100.00
16580;BME280;8402;51.466;6.806;2023-04-01T04:36:06;99053.75;;;11.67;100.00
16580;BME280;8402;51.466;6.806;2023-04-01T04:38:38;99046.00;;;11.69;100.00
16580;BME280;8402;51.466;6.806;2023-04-01T04:41:11;99049.09;;;11.68;100.00
16580;BME280;8402;51.466;6.806;2023-04-01T04:43:41;99046.38;;;11.68;100.00
16580;BME280;8402;51.466;6.806;2023-04-01T04:46:11;99048.38;;;11.71;100.00
16580;BME280;8402;51.466;6.806;2023-04-01T04:48:42;99051.44;;;11.69;100.00
16580;BME280;8402;51.466;6.806;2023-04-01T04:51:13;99057.28;;;11.71;100.00
16580;BME280;8402;51.466;6.806;2023-04-01T04:53:47;99059.59;;;11.69;100.00
16580;BME280;8402;51.466;6.806;2023-04-01T04:56:19;99058.31;;;11.63;100.00
16580;BME280;8402;51.466;6.806;2023-04-01T04:58:49;99066.13;;;11.65;100.00
16580;BME280;8402;51.466;6.806;2023-04-01T05:01:19;99062.56;;;11.61;100.00
16580;BME280;8402;51.466;6.806;2023-04-01T05:03:50;99069.06;;;11.56;100.00
16580;BME280;8402;51.466;6.806;2023-04-01T05:06:20;99064.38;;;11.53;100.00
16580;BME280;8402;51.466;6.806;2023-04-01T05:08:52;99063.50;;;11.49;100.00
16580;BME280;8402;51.466;6.806;2023-04-01T05:11:22;99070.50;;;11.50;100.00
16580;BME280;8402;51.466;6.806;2023-04-01T05:13:52;99066.53;;;11.44;100.00
16580;BME280;8402;51.466;6.806;2023-04-01T05:16:22;99063.44;;;11.45;100.00
16580;BME280;8402;51.466;6.806;2023-04-01T05:18:52;99071.66;;;11.49;100.00
16580;BME280;8402;51.466;6.806;2023-04-01T05:21:22;99074.81;;;11.51;100.00
16580;BME280;8402;51.466;6.806;2023-04-01T05:23:55;99077.53;;;11.51;100.00
16580;BME280;8402;51.466;6.806;2023-04-01T05:26:25;99078.22;;;11.48;100.00
16580;BME280;8402;51.466;6.806;2023-04-01T05:28:55;99077.44;;;11.47;100.00
16580;BME280;8402;51.466;6.806;2023-04-01T05:31:25;99075.88;;;11.46;100.00
16580;BME280;8402;51.466;6.806;2023-04-01T05:33:55;99079.66;;;11.42;100.00
16580;BME280;8402;51.466;6.806;2023-04-01T05:36:25;99078.50;;;11.43;100.00
16580;BME280;8402;51.466;6.806;2023-04-01T05:38:57;99083.16;;;11.42;100.00
16580;BME280;8402;51.466;6.806;2023-04-01T05:41:27;99083.94;;;11.43;100.00
16580;BME280;8402;51.466;6.806;2023-04-01T05:43:57;99085.81;;;11.39;100.00
16580;BME280;8402;51.466;6.806;2023-04-01T05:46:27;99087.34;;;11.36;100.00
16580;BME280;8402;51.466;6.806;2023-04-01T05:48:59;99084.19;;;11.34;100.00
16580;BME280;8402;51.466;6.806;2023-04-01T05:51:29;99084.97;;;11.35;100.00
16580;BME280;8402;51.466;6.806;2023-04-01T05:54:03;99094.69;;;11.36;100.00
16580;BME280;8402;51.466;6.806;2023-04-01T05:56:33;99095.81;;;11.35;100.00
16580;BME280;8402;51.466;6.806;2023-04-01T05:59:03;99094.69;;;11.36;100.00
16580;BME280;8402;51.466;6.806;2023-04-01T06:01:33;99090.84;;;11.37;100.00
16580;BME280;8402;51.466;6.806;2023-04-01T06:04:03;99099.00;;;11.37;100.00
16580;BME280;8402;51.466;6.806;2023-04-01T06:06:34;99095.81;;;11.35;100.00
16580;BME280;8402;51.466;6.806;2023-04-01T06:09:13;99097.25;;;11.28;100.00
16580;BME280;8402;51.466;6.806;2023-04-01T06:11:55;99101.13;;;11.27;100.00
16580;BME280;8402;51.466;6.806;2023-04-01T06:14:32;99101.19;;;11.31;100.00
16580;BME280;8402;51.466;6.806;2023-04-01T06:17:19;99102.69;;;11.28;100.00
16580;BME280;8402;51.466;6.806;2023-04-01T06:19:54;99101.19;;;11.31;100.00
16580;BME280;8402;51.466;6.806;2023-04-01T06:23:00;99104.28;;;11.29;100.00
16580;BME280;8402;51.466;6.806;2023-04-01T06:25:51;99116.25;;;11.28;100.00
16580;BME280;8402;51.466;6.806;2023-04-01T06:32:00;99124.25;;;11.21;100.00
16580;BME280;8402;51.466;6.806;2023-04-01T06:34:48;99117.41;;;11.27;100.00
16580;BME280;8402;51.466;6.806;2023-04-01T06:37:31;99118.97;;;11.28;100.00
16580;BME280;8402;51.466;6.806;2023-04-01T06:40:35;99125.13;;;11.25;100.00
16580;BME280;8402;51.466;6.806;2023-04-01T06:43:16;99126.00;;;11.29;100.00
16580;BME280;8402;51.466;6.806;2023-04-01T06:45:53;99132.22;;;11.30;100.00
16580;BME280;8402;51.466;6.806;2023-04-01T06:48:37;99135.72;;;11.30;100.00
16580;BME280;8402;51.466;6.806;2023-04-01T06:51:19;99136.13;;;11.33;100.00
16580;BME280;8402;51.466;6.806;2023-04-01T06:53:56;99135.41;;;11.36;100.00
16580;BME280;8402;51.466;6.806;2023-04-01T06:56:32;99132.78;;;11.39;100.00
16580;BME280;8402;51.466;6.806;2023-04-01T06:59:13;99127.41;;;11.43;100.00
16580;BME280;8402;51.466;6.806;2023-04-01T07:01:48;99138.25;;;11.43;100.00
16580;BME280;8402;51.466;6.806;2023-04-01T07:04:21;99129.41;;;11.46;100.00
16580;BME280;8402;51.466;6.806;2023-04-01T07:06:54;99137.16;;;11.44;100.00
16580;BME280;8402;51.466;6.806;2023-04-01T07:09:27;99133.28;;;11.45;100.00
16580;BME280;8402;51.466;6.806;2023-04-01T07:12:02;99141.94;;;11.50;100.00
16580;BME280;8402;51.466;6.806;2023-04-01T07:14:39;99145.84;;;11.53;100.00
16580;BME280;8402;51.466;6.806;2023-04-01T07:17:15;99136.56;;;11.54;100.00
16580;BME280;8402;51.466;6.806;2023-04-01T07:19:52;99142.00;;;11.54;100.00
16580;BME280;8402;51.466;6.806;2023-04-01T07:22:31;99149.78;;;11.55;100.00
16580;BME280;8402;51.466;6.806;2023-04-01T07:25:07;99158.69;;;11.56;100.00
16580;BME280;8402;51.466;6.806;2023-04-01T07:27:41;99157.56;;;11.57;100.00
16580;BME280;8402;51.466;6.806;2023-04-01T07:30:17;99153.28;;;11.56;100.00
16580;BME280;8402;51.466;6.806;2023-04-01T07:32:52;99166.84;;;11.56;100.00
16580;BME280;8402;51.466;6.806;2023-04-01T07:35:27;99166.16;;;11.59;100.00
16580;BME280;8402;51.466;6.806;2023-04-01T07:38:11;99178.59;;;11.60;100.00
16580;BME280;8402;51.466;6.806;2023-04-01T07:40:49;99167.00;;;11.63;100.00
16580;BME280;8402;51.466;6.806;2023-04-01T07:43:42;99172.28;;;11.56;100.00
16580;BME280;8402;51.466;6.806;2023-04-01T07:46:25;99179.28;;;11.57;100.00
16580;BME280;8402;51.466;6.806;2023-04-01T07:49:06;99190.88;;;11.54;100.00
16580;BME280;8402;51.466;6.806;2023-04-01T07:51:44;99183.00;;;11.49;100.00
16580;BME280;8402;51.466;6.806;2023-04-01T07:54:22;99193.09;;;11.48;100.00
16580;BME280;8402;51.466;6.806;2023-04-01T07:57:02;99193.09;;;11.48;100.00
16580;BME280;8402;51.466;6.806;2023-04-01T07:59:44;99195.03;;;11.48;100.00
16580;BME280;8402;51.466;6.806;2023-04-01T08:02:29;99200.03;;;11.46;100.00
16580;BME280;8402;51.466;6.806;2023-04-01T08:05:14;99206.25;;;11.46;100.00
16580;BME280;8402;51.466;6.806;2023-04-01T08:07:56;99208.53;;;11.44;100.00
16580;BME280;8402;51.466;6.806;2023-04-01T08:10:35;99210.91;;;11.46;100.00
16580;BME280;8402;51.466;6.806;2023-04-01T08:13:17;99207.63;;;11.37;100.00
16580;BME280;8402;51.466;6.806;2023-04-01T08:15:55;99221.34;;;11.44;100.00
16580;BME280;8402;51.466;6.806;2023-04-01T08:18:35;99219.03;;;11.46;100.00
16580;BME280;8402;51.466;6.806;2023-04-01T08:21:12;99217.91;;;11.47;100.00
16580;BME280;8402;51.466;6.806;2023-04-01T08:23:46;99228.13;;;11.53;100.00
16580;BME280;8402;51.466;6.806;2023-04-01T08:26:25;99240.94;;;11.53;100.00
16580;BME280;8402;51.466;6.806;2023-04-01T08:29:01;99237.06;;;11.54;100.00
16580;BME280;8402;51.466;6.806;2023-04-01T08:31:37;99235.06;;;11.51;100.00
16580;BME280;8402;51.466;6.806;2023-04-01T08:34:16;99239.63;;;11.47;100.00
16580;BME280;8402;51.466;6.806;2023-04-01T08:36:51;99250.59;;;11.50;100.00
16580;BME280;8402;51.466;6.806;2023-04-01T08:39:29;99251.38;;;11.51;100.00
16580;BME280;8402;51.466;6.806;2023-04-01T08:42:27;99260.22;;;11.48;100.00
16580;BME280;8402;51.466;6.806;2023-04-01T08:45:18;99259.94;;;11.53;100.00
16580;BME280;8402;51.466;6.806;2023-04-01T08:48:08;99259.06;;;11.49;100.00
16580;BME280;8402;51.466;6.806;2023-04-01T08:54:04;99262.38;;;11.58;100.00
16580;BME280;8402;51.466;6.806;2023-04-01T08:56:42;99265.53;;;11.60;100.00
16580;BME280;8402;51.466;6.806;2023-04-01T08:59:37;99267.88;;;11.62;100.00
16580;BME280;8402;51.466;6.806;2023-04-01T09:05:43;99273.25;;;11.58;100.00
16580;BME280;8402;51.466;6.806;2023-04-01T09:08:31;99272.53;;;11.61;100.00
16580;BME280;8402;51.466;6.806;2023-04-01T09:11:12;99281.47;;;11.62;100.00
16580;BME280;8402;51.466;6.806;2023-04-01T09:17:06;99284.97;;;11.62;100.00
16580;BME280;8402;51.466;6.806;2023-04-01T09:19:54;99288.59;;;11.70;100.00
16580;BME280;8402;51.466;6.806;2023-04-01T09:22:41;99287.56;;;11.74;100.00
16580;BME280;8402;51.466;6.806;2023-04-01T09:25:32;99293.41;;;11.76;100.00
16580;BME280;8402;51.466;6.806;2023-04-01T09:28:11;99293.16;;;11.81;100.00
16580;BME280;8402;51.466;6.806;2023-04-01T09:31:04;99288.16;;;11.83;100.00
16580;BME280;8402;51.466;6.806;2023-04-01T09:33:59;99296.44;;;11.91;100.00
16580;BME280;8402;51.466;6.806;2023-04-01T09:36:43;99296.16;;;11.96;100.00
16580;BME280;8402;51.466;6.806;2023-04-01T09:39:35;99303.59;;;11.99;100.00
16580;BME280;8402;51.466;6.806;2023-04-01T09:42:16;99305.66;;;12.05;100.00
16580;BME280;8402;51.466;6.806;2023-04-01T09:44:59;99313.28;;;12.16;100.00
16580;BME280;8402;51.466;6.806;2023-04-01T09:47:43;99313.19;;;12.12;100.00
16580;BME280;8402;51.466;6.806;2023-04-01T09:50:33;99310.47;;;12.12;100.00
16580;BME280;8402;51.466;6.806;2023-04-01T09:53:17;99319.50;;;12.16;100.00
16580;BME280;8402;51.466;6.806;2023-04-01T09:56:07;99322.56;;;12.15;100.00
16580;BME280;8402;51.466;6.806;2023-04-01T09:59:12;99328.72;;;12.11;100.00
16580;BME280;8402;51.466;6.806;2023-04-01T10:05:08;99329.00;;;12.26;100.00
16580;BME280;8402;51.466;6.806;2023-04-01T10:14:27;99335.34;;;12.33;100.00
16580;BME280;8402;51.466;6.806;2023-04-01T10:17:25;99343.66;;;12.40;100.00
16580;BME280;8402;51.466;6.806;2023-04-01T10:20:27;99342.44;;;12.38;100.00
16580;BME280;8402;51.466;6.806;2023-04-01T10:26:36;99346.97;;;12.30;100.00
16580;BME280;8402;51.466;6.806;2023-04-01T10:29:29;99350.19;;;12.36;100.00
16580;BME280;8402;51.466;6.806;2023-04-01T10:35:41;99354.16;;;12.42;100.00
16580;BME280;8402;51.466;6.806;2023-04-01T10:38:44;99353.25;;;12.34;100.00
16580;BME280;8402;51.466;6.806;2023-04-01T10:44:40;99357.84;;;12.30;100.00
16580;BME280;8402;51.466;6.806;2023-04-01T10:50:24;99364.34;;;12.26;100.00
16580;BME280;8402;51.466;6.806;2023-04-01T10:53:21;99359.19;;;12.21;100.00
16580;BME280;8402;51.466;6.806;2023-04-01T11:17:32;99392.06;;;12.31;100.00
16580;BME280;8402;51.466;6.806;2023-04-01T11:20:32;99395.91;;;12.30;100.00
16580;BME280;8402;51.466;6.806;2023-04-01T11:23:22;99396.75;;;12.34;100.00
16580;BME280;8402;51.466;6.806;2023-04-01T11:26:02;99399.06;;;12.32;100.00
16580;BME280;8402;51.466;6.806;2023-04-01T11:28:55;99407.63;;;12.34;100.00
16580;BME280;8402;51.466;6.806;2023-04-01T11:31:43;99409.66;;;12.37;100.00
16580;BME280;8402;51.466;6.806;2023-04-01T11:34:43;99408.50;;;12.38;100.00
16580;BME280;8402;51.466;6.806;2023-04-01T11:37:29;99416.25;;;12.36;100.00
16580;BME280;8402;51.466;6.806;2023-04-01T11:40:11;99419.41;;;12.38;100.00
16580;BME280;8402;51.466;6.806;2023-04-01T11:42:51;99427.34;;;12.47;100.00
16580;BME280;8402;51.466;6.806;2023-04-01T11:45:32;99428.13;;;12.48;100.00
16580;BME280;8402;51.466;6.806;2023-04-01T11:48:15;99426.28;;;12.52;100.00
16580;BME280;8402;51.466;6.806;2023-04-01T11:51:15;99434.44;;;12.52;100.00
16580;BME280;8402;51.466;6.806;2023-04-01T11:53:56;99440.81;;;12.59;100.00
16580;BME280;8402;51.466;6.806;2023-04-01T11:56:41;99441.31;;;12.65;100.00
16580;BME280;8402;51.466;6.806;2023-04-01T11:59:41;99445.47;;;12.59;100.00
16580;BME280;8402;51.466;6.806;2023-04-01T12:02:20;99441.63;;;12.63;100.00
16580;BME280;8402;51.466;6.806;2023-04-01T12:05:07;99452.47;;;12.60;100.00
16580;BME280;8402;51.466;6.806;2023-04-01T12:07:53;99454.47;;;12.63;100.00
16580;BME280;8402;51.466;6.806;2023-04-01T12:10:30;99458.06;;;12.67;100.00
16580;BME280;8402;51.466;6.806;2023-04-01T12:13:07;99455.06;;;12.72;100.00
16580;BME280;8402;51.466;6.806;2023-04-01T12:15:55;99455.34;;;12.67;100.00
16580;BME280;8402;51.466;6.806;2023-04-01T12:18:34;99469.91;;;12.78;100.00
16580;BME280;8402;51.466;6.806;2023-04-01T12:21:17;99470.38;;;12.80;100.00
16580;BME280;8402;51.466;6.806;2023-04-01T12:24:15;99470.78;;;12.82;100.00
16580;BME280;8402;51.466;6.806;2023-04-01T12:27:11;99478.53;;;12.80;100.00
16580;BME280;8402;51.466;6.806;2023-04-01T12:29:59;99481.81;;;12.89;100.00
16580;BME280;8402;51.466;6.806;2023-04-01T12:32:37;99474.00;;;12.88;100.00
16580;BME280;8402;51.466;6.806;2023-04-01T12:35:23;99485.69;;;12.88;100.00
16580;BME280;8402;51.466;6.806;2023-04-01T12:38:10;99501.28;;;12.91;100.00
16580;BME280;8402;51.466;6.806;2023-04-01T12:41:03;99490.41;;;12.91;100.00
16580;BME280;8402;51.466;6.806;2023-04-01T12:43:56;99497.41;;;12.92;100.00
16580;BME280;8402;51.466;6.806;2023-04-01T12:46:41;99501.09;;;13.00;100.00
16580;BME280;8402;51.466;6.806;2023-04-01T12:52:48;99504.16;;;12.99;100.00
16580;BME280;8402;51.466;6.806;2023-04-01T12:55:36;99504.88;;;12.95;100.00
16580;BME280;8402;51.466;6.806;2023-04-01T12:58:41;99508.31;;;12.92;100.00
16580;BME280;8402;51.466;6.806;2023-04-01T13:01:52;99506.59;;;12.84;100.00
16580;BME280;8402;51.466;6.806;2023-04-01T13:04:53;99515.91;;;12.83;100.00
16580;BME280;8402;51.466;6.806;2023-04-01T13:13:51;99528.47;;;12.88;100.00
16580;BME280;8402;51.466;6.806;2023-04-01T13:16:27;99534.84;;;12.95;100.00
16580;BME280;8402;51.466;6.806;2023-04-01T13:19:03;99540.28;;;12.95;100.00
16580;BME280;8402;51.466;6.806;2023-04-01T13:21:47;99541.06;;;12.96;100.00
16580;BME280;8402;51.466;6.806;2023-04-01T13:24:31;99545.63;;;12.92;100.00
16580;BME280;8402;51.466;6.806;2023-04-01T13:27:09;99543.00;;;12.95;100.00
16580;BME280;8402;51.466;6.806;2023-04-01T13:29:57;99556.47;;;12.88;100.00
16580;BME280;8402;51.466;6.806;2023-04-01T13:32:34;99555.69;;;12.88;100.00
16580;BME280;8402;51.466;6.806;2023-04-01T13:35:20;99559.84;;;12.82;100.00
16580;BME280;8402;51.466;6.806;2023-04-01T13:38:04;99556.59;;;12.76;100.00
16580;BME280;8402;51.466;6.806;2023-04-01T13:40:44;99562.78;;;12.73;100.00
16580;BME280;8402;51.466;6.806;2023-04-01T13:43:32;99562.16;;;12.64;100.00
16580;BME280;8402;51.466;6.806;2023-04-01T13:46:22;99564.88;;;12.64;100.00
16580;BME280;8402;51.466;6.806;2023-04-01T13:52:06;99562.09;;;12.60;100.00
16580;BME280;8402;51.466;6.806;2023-04-01T13:55:00;99574.50;;;12.58;100.00
16580;BME280;8402;51.466;6.806;2023-04-01T13:57:56;99572.84;;;12.53;100.00
16580;BME280;8402;51.466;6.806;2023-04-01T14:00:41;99573.72;;;12.57;100.00
16580;BME280;8402;51.466;6.806;2023-04-01T14:06:26;99580.72;;;12.58;100.00
16580;BME280;8402;51.466;6.806;2023-04-01T14:09:25;99579.94;;;12.58;100.00
16580;BME280;8402;51.466;6.806;2023-04-01T14:12:05;99590.81;;;12.58;100.00
16580;BME280;8402;51.466;6.806;2023-04-01T14:14:48;99591.16;;;12.56;100.00
16580;BME280;8402;51.466;6.806;2023-04-01T14:17:43;99594.66;;;12.57;100.00
16580;BME280;8402;51.466;6.806;2023-04-01T14:20:25;99593.88;;;12.56;100.00
16580;BME280;8402;51.466;6.806;2023-04-01T14:23:16;99605.91;;;12.55;100.00
16580;BME280;8402;51.466;6.806;2023-04-01T14:26:04;99602.81;;;12.57;100.00
16580;BME280;8402;51.466;6.806;2023-04-01T14:28:44;99610.28;;;12.60;100.00
16580;BME280;8402;51.466;6.806;2023-04-01T14:31:37;99608.38;;;12.60;100.00
16580;BME280;8402;51.466;6.806;2023-04-01T14:34:30;99605.38;;;12.65;100.00
16580;BME280;8402;51.466;6.806;2023-04-01T14:37:13;99611.16;;;12.64;100.00
16580;BME280;8402;51.466;6.806;2023-04-01T14:42:59;99618.72;;;12.55;100.00
16580;BME280;8402;51.466;6.806;2023-04-01T14:45:55;99620.31;;;12.56;100.00
16580;BME280;8402;51.466;6.806;2023-04-01T14:48:35;99626.63;;;12.60;100.00
16580;BME280;8402;51.466;6.806;2023-04-01T14:51:15;99630.50;;;12.59;100.00
16580;BME280;8402;51.466;6.806;2023-04-01T14:54:00;99631.97;;;12.56;100.00
16580;BME280;8402;51.466;6.806;2023-04-01T14:56:39;99632.91;;;12.64;100.00
16580;BME280;8402;51.466;6.806;2023-04-01T14:59:14;99630.28;;;12.67;100.00
16580;BME280;8402;51.466;6.806;2023-04-01T15:01:51;99638.53;;;12.71;100.00
16580;BME280;8402;51.466;6.806;2023-04-01T15:04:44;99643.97;;;12.71;100.00
16580;BME280;8402;51.466;6.806;2023-04-01T15:10:30;99648.88;;;12.81;100.00
16580;BME280;8402;51.466;6.806;2023-04-01T15:13:13;99645.44;;;12.84;100.00
16580;BME280;8402;51.466;6.806;2023-04-01T15:15:57;99655.16;;;12.85;100.00
16580;BME280;8402;51.466;6.806;2023-04-01T15:18:38;99657.47;;;12.83;100.00
16580;BME280;8402;51.466;6.806;2023-04-01T15:21:22;99670.28;;;12.83;100.00
16580;BME280;8402;51.466;6.806;2023-04-01T15:24:00;99662.84;;;12.80;100.00